sensor_id;sensor_type;location;lat;lon;timestamp;P1;durP1;ratioP1;P2;durP2;ratioP2
21905;SDS011;11117;48.644;9.006;2024-03-02T00:00:19;18.77;;;10.87;;
21905;SDS011;11117;48.644;9.006;2024-03-02T00:02:45;16.53;;;10.77;;
21905;SDS011;11117;48.644;9.006;2024-03-02T00:05:13;15.33;;;10.10;;
21905;SDS011;11117;48.644;9.006;2024-03-02T00:07:44;15.53;;;9.97;;
21905;SDS011;11117;48.644;9.006;2024-03-02T00:10:11;18.87;;;10.57;;
21905;SDS011;11117;48.644;9.006;2024-03-02T00:12:41;16.50;;;10.10;;
21905;SDS011;11117;48.644;9.006;2024-03-02T00:17:52;17.73;;;11.57;;
21905;SDS011;11117;48.644;9.006;2024-03-02T00:20:18;17.40;;;10.67;;
21905;SDS011;11117;48.644;9.006;2024-03-02T00:22:47;17.57;;;11.00;;
21905;SDS011;11117;48.644;9.006;2024-03-02T00:25:13;18.83;;;11.20;;
21905;SDS011;11117;48.644;9.006;2024-03-02T00:27:39;17.93;;;11.23;;
21905;SDS011;11117;48.644;9.006;2024-03-02T00:30:36;19.23;;;11.70;;
21905;SDS011;11117;48.644;9.006;2024-03-02T00:33:11;19.53;;;10.93;;
21905;SDS011;11117;48.644;9.006;2024-03-02T00:35:36;20.00;;;10.97;;
21905;SDS011;11117;48.644;9.006;2024-03-02T00:38:05;17.80;;;11.23;;
21905;SDS011;11117;48.644;9.006;2024-03-02T00:40:31;20.40;;;11.60;;
21905;SDS011;11117;48.644;9.006;2024-03-02T00:42:57;16.83;;;10.70;;
21905;SDS011;11117;48.644;9.006;2024-03-02T00:45:24;20.20;;;11.37;;
21905;SDS011;11117;48.644;9.006;2024-03-02T00:47:50;18.00;;;11.47;;
21905;SDS011;11117;48.644;9.006;2024-03-02T00:50:16;22.87;;;12.40;;
21905;SDS011;11117;48.644;9.006;2024-03-02T00:52:42;20.80;;;11.87;;
21905;SDS011;11117;48.644;9.006;2024-03-02T00:55:08;19.10;;;11.20;;
21905;SDS011;11117;48.644;9.006;2024-03-02T00:57:34;21.03;;;12.30;;
21905;SDS011;11117;48.644;9.006;2024-03-02T01:00:00;21.87;;;12.57;;
21905;SDS011;11117;48.644;9.006;2024-03-02T01:02:26;23.23;;;13.07;;
21905;SDS011;11117;48.644;9.006;2024-03-02T01:04:52;22.30;;;13.10;;
21905;SDS011;11117;48.644;9.006;2024-03-02T01:07:18;20.73;;;12.80;;
21905;SDS011;11117;48.644;9.006;2024-03-02T01:09:43;24.57;;;13.70;;
21905;SDS011;11117;48.644;9.006;2024-03-02T01:12:09;25.20;;;13.80;;
21905;SDS011;11117;48.644;9.006;2024-03-02T01:14:35;24.37;;;14.33;;
21905;SDS011;11117;48.644;9.006;2024-03-02T01:17:00;24.67;;;14.10;;
21905;SDS011;11117;48.644;9.006;2024-03-02T01:19:26;26.27;;;15.27;;
21905;SDS011;11117;48.644;9.006;2024-03-02T01:21:51;26.80;;;14.73;;
21905;SDS011;11117;48.644;9.006;2024-03-02T01:24:17;24.13;;;14.70;;
21905;SDS011;11117;48.644;9.006;2024-03-02T01:26:42;26.20;;;15.33;;
21905;SDS011;11117;48.644;9.006;2024-03-02T01:29:08;26.30;;;14.80;;
21905;SDS011;11117;48.644;9.006;2024-03-02T01:31:33;27.37;;;15.50;;
21905;SDS011;11117;48.644;9.006;2024-03-02T01:33:59;27.73;;;14.10;;
21905;SDS011;11117;48.644;9.006;2024-03-02T01:36:24;27.23;;;15.13;;
21905;SDS011;11117;48.644;9.006;2024-03-02T01:38:50;28.67;;;15.23;;
21905;SDS011;11117;48.644;9.006;2024-03-02T01:41:16;29.70;;;15.67;;
21905;SDS011;11117;48.644;9.006;2024-03-02T01:43:41;27.00;;;15.37;;
21905;SDS011;11117;48.644;9.006;2024-03-02T01:46:07;26.77;;;15.70;;
21905;SDS011;11117;48.644;9.006;2024-03-02T01:48:32;29.83;;;16.40;;
21905;SDS011;11117;48.644;9.006;2024-03-02T01:50:58;30.50;;;16.47;;
21905;SDS011;11117;48.644;9.006;2024-03-02T01:53:23;29.83;;;16.10;;
21905;SDS011;11117;48.644;9.006;2024-03-02T01:55:49;31.83;;;16.63;;
21905;SDS011;11117;48.644;9.006;2024-03-02T01:58:14;31.00;;;15.87;;
21905;SDS011;11117;48.644;9.006;2024-03-02T02:00:40;29.63;;;15.73;;
21905;SDS011;11117;48.644;9.006;2024-03-02T02:03:06;33.03;;;16.50;;
21905;SDS011;11117;48.644;9.006;2024-03-02T02:05:31;33.30;;;16.30;;
21905;SDS011;11117;48.644;9.006;2024-03-02T02:07:57;31.80;;;16.77;;
21905;SDS011;11117;48.644;9.006;2024-03-02T02:10:23;28.97;;;16.60;;
21905;SDS011;11117;48.644;9.006;2024-03-02T02:12:49;31.17;;;16.80;;
21905;SDS011;11117;48.644;9.006;2024-03-02T02:15:21;31.97;;;16.80;;
21905;SDS011;11117;48.644;9.006;2024-03-02T02:17:54;31.63;;;17.00;;
21905;SDS011;11117;48.644;9.006;2024-03-02T02:20:20;33.60;;;16.90;;
21905;SDS011;11117;48.644;9.006;2024-03-02T02:22:59;32.40;;;17.20;;
21905;SDS011;11117;48.644;9.006;2024-03-02T02:25:25;33.07;;;17.23;;
21905;SDS011;11117;48.644;9.006;2024-03-02T02:27:52;31.27;;;16.53;;
21905;SDS011;11117;48.644;9.006;2024-03-02T02:30:22;34.23;;;16.87;;
21905;SDS011;11117;48.644;9.006;2024-03-02T02:32:53;33.53;;;17.17;;
21905;SDS011;11117;48.644;9.006;2024-03-02T02:35:18;35.10;;;16.50;;
21905;SDS011;11117;48.644;9.006;2024-03-02T02:37:45;34.03;;;15.73;;
21905;SDS011;11117;48.644;9.006;2024-03-02T02:40:12;35.43;;;17.20;;
21905;SDS011;11117;48.644;9.006;2024-03-02T02:42:38;35.17;;;17.60;;
21905;SDS011;11117;48.644;9.006;2024-03-02T02:45:05;35.10;;;18.27;;
21905;SDS011;11117;48.644;9.006;2024-03-02T02:47:31;33.63;;;16.87;;
21905;SDS011;11117;48.644;9.006;2024-03-02T02:49:56;35.23;;;18.43;;
21905;SDS011;11117;48.644;9.006;2024-03-02T02:52:22;37.90;;;17.97;;
21905;SDS011;11117;48.644;9.006;2024-03-02T02:54:48;35.87;;;17.53;;
21905;SDS011;11117;48.644;9.006;2024-03-02T02:57:14;36.60;;;17.13;;
21905;SDS011;11117;48.644;9.006;2024-03-02T02:59:40;39.90;;;18.17;;
21905;SDS011;11117;48.644;9.006;2024-03-02T03:02:05;35.57;;;17.97;;
21905;SDS011;11117;48.644;9.006;2024-03-02T03:04:31;35.73;;;18.00;;
21905;SDS011;11117;48.644;9.006;2024-03-02T03:06:56;37.47;;;17.77;;
21905;SDS011;11117;48.644;9.006;2024-03-02T03:09:22;33.10;;;17.07;;
21905;SDS011;11117;48.644;9.006;2024-03-02T03:11:47;34.20;;;17.17;;
21905;SDS011;11117;48.644;9.006;2024-03-02T03:14:13;35.80;;;17.17;;
21905;SDS011;11117;48.644;9.006;2024-03-02T03:16:38;33.53;;;16.97;;
21905;SDS011;11117;48.644;9.006;2024-03-02T03:19:09;34.63;;;16.47;;
21905;SDS011;11117;48.644;9.006;2024-03-02T03:21:34;38.53;;;16.90;;
21905;SDS011;11117;48.644;9.006;2024-03-02T03:24:00;35.80;;;16.23;;
21905;SDS011;11117;48.644;9.006;2024-03-02T03:26:25;35.20;;;17.03;;
21905;SDS011;11117;48.644;9.006;2024-03-02T03:28:51;38.40;;;17.03;;
21905;SDS011;11117;48.644;9.006;2024-03-02T03:31:16;38.10;;;17.37;;
21905;SDS011;11117;48.644;9.006;2024-03-02T03:33:42;38.23;;;18.07;;
21905;SDS011;11117;48.644;9.006;2024-03-02T03:36:07;39.03;;;17.30;;
21905;SDS011;11117;48.644;9.006;2024-03-02T03:38:34;37.83;;;17.20;;
21905;SDS011;11117;48.644;9.006;2024-03-02T03:40:59;35.37;;;17.10;;
21905;SDS011;11117;48.644;9.006;2024-03-02T03:43:25;35.47;;;17.20;;
21905;SDS011;11117;48.644;9.006;2024-03-02T03:45:51;32.80;;;16.43;;
21905;SDS011;11117;48.644;9.006;2024-03-02T03:48:16;31.03;;;16.20;;
21905;SDS011;11117;48.644;9.006;2024-03-02T03:50:42;34.20;;;16.20;;
21905;SDS011;11117;48.644;9.006;2024-03-02T03:53:07;34.80;;;16.30;;
21905;SDS011;11117;48.644;9.006;2024-03-02T03:55:33;30.30;;;15.60;;
21905;SDS011;11117;48.644;9.006;2024-03-02T03:57:58;35.00;;;15.43;;
21905;SDS011;11117;48.644;9.006;2024-03-02T04:00:24;35.23;;;16.40;;
21905;SDS011;11117;48.644;9.006;2024-03-02T04:02:49;33.80;;;15.80;;
21905;SDS011;11117;48.644;9.006;2024-03-02T04:05:15;36.83;;;16.43;;
21905;SDS011;11117;48.644;9.006;2024-03-02T04:07:41;34.13;;;15.83;;
21905;SDS011;11117;48.644;9.006;2024-03-02T04:10:07;34.23;;;16.97;;
21905;SDS011;11117;48.644;9.006;2024-03-02T04:12:33;36.40;;;16.37;;
21905;SDS011;11117;48.644;9.006;2024-03-02T04:14:59;38.90;;;16.70;;
21905;SDS011;11117;48.644;9.006;2024-03-02T04:17:25;33.40;;;15.87;;
21905;SDS011;11117;48.644;9.006;2024-03-02T04:19:50;34.47;;;16.40;;
21905;SDS011;11117;48.644;9.006;2024-03-02T04:22:16;35.53;;;16.30;;
21905;SDS011;11117;48.644;9.006;2024-03-02T04:24:41;33.90;;;16.43;;
21905;SDS011;11117;48.644;9.006;2024-03-02T04:27:07;37.50;;;17.17;;
21905;SDS011;11117;48.644;9.006;2024-03-02T04:29:32;35.67;;;16.43;;
21905;SDS011;11117;48.644;9.006;2024-03-02T04:31:58;41.63;;;16.93;;
21905;SDS011;11117;48.644;9.006;2024-03-02T04:34:24;33.80;;;15.60;;
21905;SDS011;11117;48.644;9.006;2024-03-02T04:36:49;34.70;;;16.30;;
21905;SDS011;11117;48.644;9.006;2024-03-02T04:39:15;31.87;;;15.37;;
21905;SDS011;11117;48.644;9.006;2024-03-02T04:41:41;32.93;;;14.93;;
21905;SDS011;11117;48.644;9.006;2024-03-02T04:44:08;34.87;;;15.90;;
21905;SDS011;11117;48.644;9.006;2024-03-02T04:46:33;33.17;;;15.97;;
21905;SDS011;11117;48.644;9.006;2024-03-02T04:48:59;31.87;;;15.87;;
21905;SDS011;11117;48.644;9.006;2024-03-02T04:51:24;33.07;;;15.60;;
21905;SDS011;11117;48.644;9.006;2024-03-02T04:53:50;30.40;;;15.33;;
21905;SDS011;11117;48.644;9.006;2024-03-02T04:56:15;32.50;;;15.10;;
21905;SDS011;11117;48.644;9.006;2024-03-02T04:58:41;30.60;;;15.17;;
21905;SDS011;11117;48.644;9.006;2024-03-02T05:01:06;30.00;;;14.13;;
21905;SDS011;11117;48.644;9.006;2024-03-02T05:03:32;30.90;;;15.53;;
21905;SDS011;11117;48.644;9.006;2024-03-02T05:05:58;28.37;;;15.00;;
21905;SDS011;11117;48.644;9.006;2024-03-02T05:08:23;30.23;;;14.40;;
21905;SDS011;11117;48.644;9.006;2024-03-02T05:10:49;29.20;;;13.77;;
21905;SDS011;11117;48.644;9.006;2024-03-02T05:13:14;27.00;;;14.07;;
21905;SDS011;11117;48.644;9.006;2024-03-02T05:15:40;29.23;;;14.43;;
21905;SDS011;11117;48.644;9.006;2024-03-02T05:18:05;28.43;;;13.73;;
21905;SDS011;11117;48.644;9.006;2024-03-02T05:20:31;27.53;;;14.33;;
21905;SDS011;11117;48.644;9.006;2024-03-02T05:22:56;26.37;;;14.07;;
21905;SDS011;11117;48.644;9.006;2024-03-02T05:25:22;28.60;;;13.87;;
21905;SDS011;11117;48.644;9.006;2024-03-02T05:27:48;27.13;;;14.33;;
21905;SDS011;11117;48.644;9.006;2024-03-02T05:30:13;29.07;;;14.80;;
21905;SDS011;11117;48.644;9.006;2024-03-02T05:32:39;27.80;;;14.30;;
21905;SDS011;11117;48.644;9.006;2024-03-02T05:35:04;28.13;;;13.33;;
21905;SDS011;11117;48.644;9.006;2024-03-02T05:37:30;27.43;;;13.57;;
21905;SDS011;11117;48.644;9.006;2024-03-02T05:39:56;27.57;;;13.53;;
21905;SDS011;11117;48.644;9.006;2024-03-02T05:42:21;31.67;;;14.37;;
21905;SDS011;11117;48.644;9.006;2024-03-02T05:44:47;31.23;;;14.37;;
21905;SDS011;11117;48.644;9.006;2024-03-02T05:47:13;27.67;;;14.17;;
21905;SDS011;11117;48.644;9.006;2024-03-02T05:49:38;31.00;;;14.50;;
21905;SDS011;11117;48.644;9.006;2024-03-02T05:52:04;26.10;;;14.50;;
21905;SDS011;11117;48.644;9.006;2024-03-02T05:54:29;29.50;;;15.10;;
21905;SDS011;11117;48.644;9.006;2024-03-02T05:56:55;27.30;;;13.77;;
21905;SDS011;11117;48.644;9.006;2024-03-02T05:59:20;25.03;;;13.53;;
21905;SDS011;11117;48.644;9.006;2024-03-02T06:01:46;24.63;;;13.97;;
21905;SDS011;11117;48.644;9.006;2024-03-02T06:04:12;27.70;;;14.67;;
21905;SDS011;11117;48.644;9.006;2024-03-02T06:06:38;43.97;;;22.27;;
21905;SDS011;11117;48.644;9.006;2024-03-02T06:09:08;29.60;;;15.93;;
21905;SDS011;11117;48.644;9.006;2024-03-02T06:14:00;31.63;;;16.40;;
21905;SDS011;11117;48.644;9.006;2024-03-02T06:16:25;29.53;;;14.80;;
21905;SDS011;11117;48.644;9.006;2024-03-02T06:18:51;33.30;;;14.97;;
21905;SDS011;11117;48.644;9.006;2024-03-02T06:21:17;29.40;;;15.13;;
21905;SDS011;11117;48.644;9.006;2024-03-02T06:23:42;26.93;;;15.50;;
21905;SDS011;11117;48.644;9.006;2024-03-02T06:26:08;29.87;;;16.13;;
21905;SDS011;11117;48.644;9.006;2024-03-02T06:28:33;28.23;;;15.17;;
21905;SDS011;11117;48.644;9.006;2024-03-02T06:30:59;30.77;;;15.33;;
21905;SDS011;11117;48.644;9.006;2024-03-02T06:33:25;29.40;;;14.90;;
21905;SDS011;11117;48.644;9.006;2024-03-02T06:35:50;28.23;;;14.87;;
21905;SDS011;11117;48.644;9.006;2024-03-02T06:38:16;28.97;;;16.07;;
21905;SDS011;11117;48.644;9.006;2024-03-02T06:40:41;31.27;;;17.20;;
21905;SDS011;11117;48.644;9.006;2024-03-02T06:43:07;29.03;;;16.40;;
21905;SDS011;11117;48.644;9.006;2024-03-02T06:45:33;31.70;;;16.20;;
21905;SDS011;11117;48.644;9.006;2024-03-02T06:47:58;31.07;;;16.80;;
21905;SDS011;11117;48.644;9.006;2024-03-02T06:50:24;29.40;;;16.77;;
21905;SDS011;11117;48.644;9.006;2024-03-02T06:52:49;29.90;;;16.27;;
21905;SDS011;11117;48.644;9.006;2024-03-02T06:55:15;28.23;;;16.00;;
21905;SDS011;11117;48.644;9.006;2024-03-02T06:57:40;28.63;;;15.50;;
21905;SDS011;11117;48.644;9.006;2024-03-02T07:00:06;33.87;;;16.50;;
21905;SDS011;11117;48.644;9.006;2024-03-02T07:02:32;31.53;;;16.47;;
21905;SDS011;11117;48.644;9.006;2024-03-02T07:04:57;30.37;;;16.83;;
21905;SDS011;11117;48.644;9.006;2024-03-02T07:07:23;30.93;;;16.30;;
21905;SDS011;11117;48.644;9.006;2024-03-02T07:09:48;34.50;;;17.10;;
21905;SDS011;11117;48.644;9.006;2024-03-02T07:12:14;31.90;;;16.60;;
21905;SDS011;11117;48.644;9.006;2024-03-02T07:14:39;31.70;;;17.07;;
21905;SDS011;11117;48.644;9.006;2024-03-02T07:17:05;28.40;;;15.43;;
21905;SDS011;11117;48.644;9.006;2024-03-02T07:19:31;27.90;;;15.23;;
21905;SDS011;11117;48.644;9.006;2024-03-02T07:21:56;26.17;;;14.83;;
21905;SDS011;11117;48.644;9.006;2024-03-02T07:24:22;25.53;;;14.20;;
21905;SDS011;11117;48.644;9.006;2024-03-02T07:26:47;25.13;;;13.33;;
21905;SDS011;11117;48.644;9.006;2024-03-02T07:29:13;22.97;;;12.37;;
21905;SDS011;11117;48.644;9.006;2024-03-02T07:31:38;20.57;;;12.07;;
21905;SDS011;11117;48.644;9.006;2024-03-02T07:34:08;19.97;;;12.30;;
21905;SDS011;11117;48.644;9.006;2024-03-02T07:36:33;23.40;;;12.90;;
21905;SDS011;11117;48.644;9.006;2024-03-02T07:38:59;24.53;;;13.70;;
21905;SDS011;11117;48.644;9.006;2024-03-02T07:41:24;24.20;;;12.83;;
21905;SDS011;11117;48.644;9.006;2024-03-02T07:43:50;23.87;;;12.60;;
21905;SDS011;11117;48.644;9.006;2024-03-02T07:46:15;23.20;;;12.50;;
21905;SDS011;11117;48.644;9.006;2024-03-02T07:48:41;18.00;;;11.07;;
21905;SDS011;11117;48.644;9.006;2024-03-02T07:51:07;17.23;;;10.47;;
21905;SDS011;11117;48.644;9.006;2024-03-02T07:53:33;17.67;;;10.43;;
21905;SDS011;11117;48.644;9.006;2024-03-02T07:55:58;16.37;;;10.43;;
21905;SDS011;11117;48.644;9.006;2024-03-02T07:58:24;18.27;;;11.23;;
21905;SDS011;11117;48.644;9.006;2024-03-02T08:00:49;21.17;;;11.37;;
21905;SDS011;11117;48.644;9.006;2024-03-02T08:03:15;21.50;;;12.67;;
21905;SDS011;11117;48.644;9.006;2024-03-02T08:05:41;24.03;;;13.93;;
21905;SDS011;11117;48.644;9.006;2024-03-02T08:08:06;24.03;;;14.70;;
21905;SDS011;11117;48.644;9.006;2024-03-02T08:10:32;25.60;;;14.60;;
21905;SDS011;11117;48.644;9.006;2024-03-02T08:12:57;24.53;;;14.30;;
21905;SDS011;11117;48.644;9.006;2024-03-02T08:15:23;24.53;;;14.47;;
21905;SDS011;11117;48.644;9.006;2024-03-02T08:17:48;28.37;;;14.23;;
21905;SDS011;11117;48.644;9.006;2024-03-02T08:20:14;23.10;;;13.20;;
21905;SDS011;11117;48.644;9.006;2024-03-02T08:22:40;17.77;;;10.97;;
21905;SDS011;11117;48.644;9.006;2024-03-02T08:25:05;20.83;;;12.43;;
21905;SDS011;11117;48.644;9.006;2024-03-02T08:27:32;17.87;;;10.97;;
21905;SDS011;11117;48.644;9.006;2024-03-02T08:29:58;17.80;;;10.67;;
21905;SDS011;11117;48.644;9.006;2024-03-02T08:32:23;17.43;;;10.47;;
21905;SDS011;11117;48.644;9.006;2024-03-02T08:34:49;14.90;;;9.60;;
21905;SDS011;11117;48.644;9.006;2024-03-02T08:37:14;14.60;;;9.63;;
21905;SDS011;11117;48.644;9.006;2024-03-02T08:39:40;15.67;;;10.03;;
21905;SDS011;11117;48.644;9.006;2024-03-02T08:42:06;15.30;;;10.07;;
21905;SDS011;11117;48.644;9.006;2024-03-02T08:44:31;16.60;;;9.80;;
21905;SDS011;11117;48.644;9.006;2024-03-02T08:46:57;14.40;;;8.47;;
21905;SDS011;11117;48.644;9.006;2024-03-02T08:49:23;13.20;;;8.87;;
21905;SDS011;11117;48.644;9.006;2024-03-02T08:51:48;11.50;;;7.57;;
21905;SDS011;11117;48.644;9.006;2024-03-02T08:54:14;10.67;;;7.23;;
21905;SDS011;11117;48.644;9.006;2024-03-02T08:56:40;11.23;;;7.47;;
21905;SDS011;11117;48.644;9.006;2024-03-02T08:59:08;8.90;;;6.20;;
21905;SDS011;11117;48.644;9.006;2024-03-02T09:01:33;9.33;;;6.37;;
21905;SDS011;11117;48.644;9.006;2024-03-02T09:03:59;8.50;;;5.60;;
21905;SDS011;11117;48.644;9.006;2024-03-02T09:06:24;8.30;;;5.20;;
21905;SDS011;11117;48.644;9.006;2024-03-02T09:08:50;8.10;;;5.40;;
21905;SDS011;11117;48.644;9.006;2024-03-02T09:11:15;8.47;;;5.43;;
21905;SDS011;11117;48.644;9.006;2024-03-02T09:13:41;8.63;;;5.37;;
21905;SDS011;11117;48.644;9.006;2024-03-02T09:16:07;10.17;;;5.57;;
21905;SDS011;11117;48.644;9.006;2024-03-02T09:18:32;7.37;;;4.97;;
21905;SDS011;11117;48.644;9.006;2024-03-02T09:20:58;6.93;;;4.63;;
21905;SDS011;11117;48.644;9.006;2024-03-02T09:23:23;6.13;;;4.57;;
21905;SDS011;11117;48.644;9.006;2024-03-02T09:25:49;7.87;;;4.60;;
21905;SDS011;11117;48.644;9.006;2024-03-02T09:28:15;11.13;;;4.67;;
21905;SDS011;11117;48.644;9.006;2024-03-02T09:30:41;11.90;;;5.50;;
21905;SDS011;11117;48.644;9.006;2024-03-02T09:33:06;8.90;;;6.27;;
21905;SDS011;11117;48.644;9.006;2024-03-02T09:35:32;8.37;;;5.40;;
21905;SDS011;11117;48.644;9.006;2024-03-02T09:37:58;8.20;;;5.40;;
21905;SDS011;11117;48.644;9.006;2024-03-02T09:40:23;8.97;;;5.80;;
21905;SDS011;11117;48.644;9.006;2024-03-02T09:42:49;8.53;;;4.60;;
21905;SDS011;11117;48.644;9.006;2024-03-02T09:45:15;5.40;;;3.90;;
21905;SDS011;11117;48.644;9.006;2024-03-02T09:47:41;4.73;;;3.00;;
21905;SDS011;11117;48.644;9.006;2024-03-02T09:50:07;3.30;;;2.57;;
21905;SDS011;11117;48.644;9.006;2024-03-02T09:52:33;4.70;;;2.50;;
21905;SDS011;11117;48.644;9.006;2024-03-02T09:55:00;2.90;;;2.40;;
21905;SDS011;11117;48.644;9.006;2024-03-02T09:57:25;3.10;;;2.20;;
21905;SDS011;11117;48.644;9.006;2024-03-02T09:59:51;3.90;;;2.20;;
21905;SDS011;11117;48.644;9.006;2024-03-02T10:02:16;3.93;;;2.40;;
21905;SDS011;11117;48.644;9.006;2024-03-02T10:04:42;4.13;;;2.20;;
21905;SDS011;11117;48.644;9.006;2024-03-02T10:07:11;3.87;;;2.20;;
21905;SDS011;11117;48.644;9.006;2024-03-02T10:09:41;2.50;;;2.27;;
21905;SDS011;11117;48.644;9.006;2024-03-02T10:12:09;4.37;;;2.60;;
21905;SDS011;11117;48.644;9.006;2024-03-02T10:14:35;2.53;;;2.07;;
21905;SDS011;11117;48.644;9.006;2024-03-02T10:17:13;3.53;;;1.80;;
21905;SDS011;11117;48.644;9.006;2024-03-02T10:19:39;3.03;;;2.13;;
21905;SDS011;11117;48.644;9.006;2024-03-02T10:22:05;2.27;;;1.57;;
21905;SDS011;11117;48.644;9.006;2024-03-02T10:24:34;2.70;;;1.80;;
21905;SDS011;11117;48.644;9.006;2024-03-02T10:27:18;1.53;;;1.40;;
21905;SDS011;11117;48.644;9.006;2024-03-02T10:29:51;2.60;;;1.53;;
21905;SDS011;11117;48.644;9.006;2024-03-02T10:32:17;2.10;;;1.40;;
21905;SDS011;11117;48.644;9.006;2024-03-02T10:34:44;2.67;;;1.40;;
21905;SDS011;11117;48.644;9.006;2024-03-02T10:37:11;1.40;;;1.30;;
21905;SDS011;11117;48.644;9.006;2024-03-02T10:39:37;1.70;;;1.50;;
21905;SDS011;11117;48.644;9.006;2024-03-02T10:42:03;1.77;;;1.27;;
21905;SDS011;11117;48.644;9.006;2024-03-02T10:44:30;1.77;;;1.43;;
21905;SDS011;11117;48.644;9.006;2024-03-02T10:46:56;1.40;;;1.17;;
21905;SDS011;11117;48.644;9.006;2024-03-02T10:49:23;1.80;;;1.20;;
21905;SDS011;11117;48.644;9.006;2024-03-02T10:51:51;1.43;;;1.20;;
21905;SDS011;11117;48.644;9.006;2024-03-02T10:54:16;1.27;;;1.02;;
21905;SDS011;11117;48.644;9.006;2024-03-02T10:56:43;1.77;;;0.90;;
21905;SDS011;11117;48.644;9.006;2024-03-02T11:01:38;1.97;;;1.17;;
21905;SDS011;11117;48.644;9.006;2024-03-02T11:04:08;1.95;;;1.27;;
21905;SDS011;11117;48.644;9.006;2024-03-02T11:06:36;2.08;;;1.40;;
21905;SDS011;11117;48.644;9.006;2024-03-02T11:09:08;1.38;;;1.17;;
21905;SDS011;11117;48.644;9.006;2024-03-02T11:11:36;2.78;;;1.00;;
21905;SDS011;11117;48.644;9.006;2024-03-02T11:14:10;0.98;;;0.85;;
21905;SDS011;11117;48.644;9.006;2024-03-02T11:16:41;3.55;;;2.30;;
21905;SDS011;11117;48.644;9.006;2024-03-02T11:19:10;1.20;;;1.10;;
21905;SDS011;11117;48.644;9.006;2024-03-02T11:21:40;1.00;;;0.80;;
21905;SDS011;11117;48.644;9.006;2024-03-02T11:26:49;1.58;;;0.50;;
21905;SDS011;11117;48.644;9.006;2024-03-02T11:29:42;1.15;;;0.60;;
21905;SDS011;11117;48.644;9.006;2024-03-02T11:32:13;0.70;;;0.60;;
21905;SDS011;11117;48.644;9.006;2024-03-02T11:34:43;1.45;;;0.60;;
21905;SDS011;11117;48.644;9.006;2024-03-02T11:37:13;1.42;;;0.55;;
21905;SDS011;11117;48.644;9.006;2024-03-02T11:39:39;1.02;;;0.68;;
21905;SDS011;11117;48.644;9.006;2024-03-02T11:42:06;0.50;;;0.50;;
21905;SDS011;11117;48.644;9.006;2024-03-02T11:44:32;0.82;;;0.70;;
21905;SDS011;11117;48.644;9.006;2024-03-02T11:46:59;1.20;;;0.55;;
21905;SDS011;11117;48.644;9.006;2024-03-02T11:49:48;0.80;;;0.60;;
21905;SDS011;11117;48.644;9.006;2024-03-02T11:52:14;0.55;;;0.45;;
21905;SDS011;11117;48.644;9.006;2024-03-02T11:54:41;0.85;;;0.50;;
21905;SDS011;11117;48.644;9.006;2024-03-02T11:57:08;0.95;;;0.88;;
21905;SDS011;11117;48.644;9.006;2024-03-02T11:59:33;1.73;;;1.20;;
21905;SDS011;11117;48.644;9.006;2024-03-02T12:01:59;1.67;;;1.08;;
21905;SDS011;11117;48.644;9.006;2024-03-02T12:04:25;1.50;;;1.08;;
21905;SDS011;11117;48.644;9.006;2024-03-02T12:07:09;3.90;;;1.17;;
21905;SDS011;11117;48.644;9.006;2024-03-02T12:09:35;0.93;;;0.80;;
21905;SDS011;11117;48.644;9.006;2024-03-02T12:12:03;1.30;;;0.70;;
21905;SDS011;11117;48.644;9.006;2024-03-02T12:14:32;1.80;;;0.65;;
21905;SDS011;11117;48.644;9.006;2024-03-02T12:16:59;2.33;;;0.70;;
21905;SDS011;11117;48.644;9.006;2024-03-02T12:19:26;1.40;;;0.88;;
21905;SDS011;11117;48.644;9.006;2024-03-02T12:21:52;1.38;;;0.90;;
21905;SDS011;11117;48.644;9.006;2024-03-02T12:24:18;1.80;;;1.00;;
21905;SDS011;11117;48.644;9.006;2024-03-02T12:26:45;1.30;;;0.98;;
21905;SDS011;11117;48.644;9.006;2024-03-02T12:29:11;0.70;;;0.70;;
21905;SDS011;11117;48.644;9.006;2024-03-02T12:31:37;0.80;;;0.80;;
21905;SDS011;11117;48.644;9.006;2024-03-02T12:34:08;1.85;;;0.70;;
21905;SDS011;11117;48.644;9.006;2024-03-02T12:36:37;1.05;;;0.75;;
21905;SDS011;11117;48.644;9.006;2024-03-02T12:39:08;0.82;;;0.80;;
21905;SDS011;11117;48.644;9.006;2024-03-02T12:41:35;1.27;;;0.70;;
21905;SDS011;11117;48.644;9.006;2024-03-02T12:44:02;0.63;;;0.50;;
21905;SDS011;11117;48.644;9.006;2024-03-02T12:46:27;0.75;;;0.70;;
21905;SDS011;11117;48.644;9.006;2024-03-02T12:48:53;2.22;;;0.60;;
21905;SDS011;11117;48.644;9.006;2024-03-02T12:51:19;2.80;;;0.50;;
21905;SDS011;11117;48.644;9.006;2024-03-02T12:53:44;2.17;;;0.40;;
21905;SDS011;11117;48.644;9.006;2024-03-02T12:56:10;0.52;;;0.40;;
21905;SDS011;11117;48.644;9.006;2024-03-02T12:58:39;0.82;;;0.50;;
21905;SDS011;11117;48.644;9.006;2024-03-02T13:01:08;1.00;;;0.95;;
21905;SDS011;11117;48.644;9.006;2024-03-02T13:03:40;1.20;;;1.10;;
21905;SDS011;11117;48.644;9.006;2024-03-02T13:06:06;1.30;;;1.20;;
21905;SDS011;11117;48.644;9.006;2024-03-02T13:08:32;1.33;;;0.80;;
21905;SDS011;11117;48.644;9.006;2024-03-02T13:10:58;1.55;;;0.47;;
21905;SDS011;11117;48.644;9.006;2024-03-02T13:13:24;2.80;;;0.50;;
21905;SDS011;11117;48.644;9.006;2024-03-02T13:15:50;0.95;;;0.63;;
21905;SDS011;11117;48.644;9.006;2024-03-02T13:18:19;1.00;;;0.60;;
21905;SDS011;11117;48.644;9.006;2024-03-02T13:20:44;1.40;;;0.70;;
21905;SDS011;11117;48.644;9.006;2024-03-02T13:23:10;2.67;;;0.70;;
21905;SDS011;11117;48.644;9.006;2024-03-02T13:25:36;1.92;;;1.08;;
21905;SDS011;11117;48.644;9.006;2024-03-02T13:28:01;0.80;;;0.80;;
21905;SDS011;11117;48.644;9.006;2024-03-02T13:30:27;1.15;;;0.90;;
21905;SDS011;11117;48.644;9.006;2024-03-02T13:32:52;1.00;;;0.90;;
21905;SDS011;11117;48.644;9.006;2024-03-02T13:35:18;1.67;;;0.82;;
21905;SDS011;11117;48.644;9.006;2024-03-02T13:37:43;0.98;;;0.80;;
21905;SDS011;11117;48.644;9.006;2024-03-02T13:40:09;1.17;;;0.82;;
21905;SDS011;11117;48.644;9.006;2024-03-02T13:42:35;0.95;;;0.60;;
21905;SDS011;11117;48.644;9.006;2024-03-02T13:45:00;0.88;;;0.73;;
21905;SDS011;11117;48.644;9.006;2024-03-02T13:47:26;0.80;;;0.75;;
21905;SDS011;11117;48.644;9.006;2024-03-02T13:49:51;1.65;;;1.10;;
21905;SDS011;11117;48.644;9.006;2024-03-02T13:52:17;2.22;;;1.00;;
21905;SDS011;11117;48.644;9.006;2024-03-02T13:54:43;1.00;;;0.90;;
21905;SDS011;11117;48.644;9.006;2024-03-02T13:57:10;2.03;;;0.90;;
21905;SDS011;11117;48.644;9.006;2024-03-02T13:59:37;2.10;;;1.10;;
21905;SDS011;11117;48.644;9.006;2024-03-02T14:02:03;2.70;;;1.10;;
21905;SDS011;11117;48.644;9.006;2024-03-02T14:04:30;1.33;;;1.00;;
21905;SDS011;11117;48.644;9.006;2024-03-02T14:06:57;1.42;;;1.00;;
21905;SDS011;11117;48.644;9.006;2024-03-02T14:09:22;1.20;;;1.10;;
21905;SDS011;11117;48.644;9.006;2024-03-02T14:11:49;2.80;;;1.00;;
21905;SDS011;11117;48.644;9.006;2024-03-02T14:14:15;1.90;;;1.02;;
21905;SDS011;11117;48.644;9.006;2024-03-02T14:16:40;1.10;;;1.00;;
21905;SDS011;11117;48.644;9.006;2024-03-02T14:19:08;1.77;;;1.00;;
21905;SDS011;11117;48.644;9.006;2024-03-02T14:21:34;2.53;;;1.17;;
21905;SDS011;11117;48.644;9.006;2024-03-02T14:24:00;2.30;;;1.08;;
21905;SDS011;11117;48.644;9.006;2024-03-02T14:26:25;1.20;;;1.00;;
21905;SDS011;11117;48.644;9.006;2024-03-02T14:28:51;2.65;;;1.25;;
21905;SDS011;11117;48.644;9.006;2024-03-02T14:31:16;2.38;;;1.30;;
21905;SDS011;11117;48.644;9.006;2024-03-02T14:33:42;1.00;;;0.90;;
21905;SDS011;11117;48.644;9.006;2024-03-02T14:36:07;1.38;;;1.05;;